createdAt,value
2022-08-25T00:01:24.215Z,97895.02
2022-08-25T00:03:54.548Z,97892.38
2022-08-25T00:06:21.454Z,97896.85
2022-08-25T00:08:49.265Z,97896.09
2022-08-25T00:11:23.631Z,97894.27
2022-08-25T00:13:56.285Z,97895.39
2022-08-25T00:16:23.814Z,97890.98
2022-08-25T00:18:53.849Z,97888.70
2022-08-25T00:21:23.262Z,97888.66
2022-08-25T00:23:50.651Z,97888.67
2022-08-25T00:26:18.247Z,97885.67
2022-08-25T00:28:45.048Z,97883.63
2022-08-25T00:31:17.723Z,97885.17
2022-08-25T00:33:45.767Z,97883.80
2022-08-25T00:36:13.811Z,97883.33
2022-08-25T00:38:42.265Z,97883.29
2022-08-25T00:41:11.742Z,97882.50
2022-08-25T00:43:41.795Z,97881.30
2022-08-25T00:46:10.121Z,97879.95
2022-08-25T00:48:38.772Z,97878.63
2022-08-25T00:51:09.452Z,97879.60
2022-08-25T00:53:37.195Z,97873.61
2022-08-25T00:56:04.099Z,97868.11
2022-08-25T00:58:33.837Z,97867.10
2022-08-25T01:01:00.880Z,97863.93
2022-08-25T01:03:33.082Z,97862.36
2022-08-25T01:06:04.468Z,97864.16
2022-08-25T01:08:32.945Z,97865.09
2022-08-25T01:11:04.389Z,97861.92
2022-08-25T01:13:36.557Z,97859.02
2022-08-25T01:16:03.837Z,97857.09
2022-08-25T01:18:46.338Z,97861.51
2022-08-25T01:21:14.139Z,97861.20
2022-08-25T01:23:41.643Z,97860.54
2022-08-25T01:26:14.080Z,97860.98
2022-08-25T01:29:02.361Z,97857.02
2022-08-25T01:31:30.407Z,97858.55
2022-08-25T01:33:57.944Z,97860.73
2022-08-25T01:36:26.895Z,97856.85
2022-08-25T01:38:54.549Z,97850.99
2022-08-25T01:41:39.894Z,97854.14
2022-08-25T01:44:10.885Z,97854.19
2022-08-25T01:46:43.437Z,97852.37
2022-08-25T01:49:10.411Z,97852.42
2022-08-25T01:51:46.633Z,97853.99
2022-08-25T01:54:13.519Z,97853.41
2022-08-25T01:56:40.267Z,97854.60
2022-08-25T01:59:06.958Z,97854.93
2022-08-25T02:01:33.983Z,97848.93
2022-08-25T02:04:00.881Z,97846.28
2022-08-25T02:06:32.206Z,97839.89
2022-08-25T02:09:14.913Z,97839.98
2022-08-25T02:11:44.043Z,97841.43
2022-08-25T02:14:11.887Z,97843.27
2022-08-25T02:16:41.436Z,97842.70
2022-08-25T02:19:11.563Z,97841.04
2022-08-25T02:21:38.914Z,97846.20
2022-08-25T02:24:06.957Z,97848.64
2022-08-25T02:26:34.312Z,97845.63
2022-08-25T02:29:01.728Z,97847.84
2022-08-25T02:31:28.642Z,97852.13
2022-08-25T02:33:56.643Z,97850.20
2022-08-25T02:36:24.011Z,97848.64
2022-08-25T02:38:50.764Z,97848.38
2022-08-25T02:41:20.383Z,97849.48
2022-08-25T02:43:48.468Z,97846.80
2022-08-25T02:46:19.390Z,97850.73
2022-08-25T02:48:47.225Z,97849.72
2022-08-25T02:51:14.738Z,97846.41
2022-08-25T02:53:45.304Z,97849.05
2022-08-25T02:56:13.480Z,97851.14
2022-08-25T02:58:42.096Z,97854.27
2022-08-25T03:01:11.493Z,97855.69
2022-08-25T03:03:43.903Z,97858.12
2022-08-25T03:06:12.117Z,97856.30
2022-08-25T03:08:39.593Z,97856.87
2022-08-25T03:11:06.900Z,97854.43
2022-08-25T03:13:34.719Z,97855.73
2022-08-25T03:16:03.748Z,97858.79
2022-08-25T03:18:31.121Z,97857.77
2022-08-25T03:20:58.964Z,97861.54
2022-08-25T03:23:26.227Z,97861.23
2022-08-25T03:26:14.753Z,97861.67
2022-08-25T03:28:41.693Z,97860.48
2022-08-25T03:31:09.342Z,97867.67
2022-08-25T03:33:36.327Z,97870.52
2022-08-25T03:36:03.678Z,97869.43
2022-08-25T03:38:30.525Z,97872.89
2022-08-25T03:40:57.281Z,97874.19
2022-08-25T03:43:24.104Z,97873.98
2022-08-25T03:45:51.416Z,97877.44
2022-08-25T03:48:18.272Z,97879.26
2022-08-25T03:50:50.615Z,97875.51
2022-08-25T03:53:20.053Z,97878.07
2022-08-25T03:55:47.301Z,97874.23
2022-08-25T03:58:14.082Z,97874.16
2022-08-25T04:00:41.400Z,97875.46
2022-08-25T04:03:08.055Z,97875.36
2022-08-25T04:05:34.879Z,97876.94
2022-08-25T04:08:01.989Z,97877.81
2022-08-25T04:10:29.414Z,97878.44
2022-08-25T04:12:56.094Z,97882.61
2022-08-25T04:15:23.915Z,97879.97
2022-08-25T04:17:55.583Z,97883.59
2022-08-25T04:20:22.709Z,97888.02
2022-08-25T04:22:49.381Z,97884.09
2022-08-25T04:25:16.337Z,97883.33
2022-08-25T04:27:42.977Z,97887.50
2022-08-25T04:30:10.456Z,97886.31
2022-08-25T04:32:37.177Z,97889.03
2022-08-25T04:35:05.622Z,97884.12
2022-08-25T04:37:32.873Z,97878.94
2022-08-25T04:39:59.745Z,97880.14
2022-08-25T04:42:26.706Z,97882.77
2022-08-25T04:44:53.857Z,97883.67
2022-08-25T04:47:20.770Z,97884.78
2022-08-25T04:49:47.376Z,97886.77
2022-08-25T04:52:14.697Z,97888.52
2022-08-25T04:54:42.395Z,97887.60
2022-08-25T04:57:09.372Z,97884.43
2022-08-25T04:59:36.291Z,97885.96
2022-08-25T05:02:04.683Z,97884.46
2022-08-25T05:04:32.865Z,97887.91
2022-08-25T05:07:00.617Z,97885.98
2022-08-25T05:09:28.000Z,97885.86
2022-08-25T05:11:54.895Z,97881.72
2022-08-25T05:14:26.250Z,97880.80
2022-08-25T05:16:54.901Z,97881.80
2022-08-25T05:19:23.599Z,97881.66
2022-08-25T05:21:51.029Z,97885.41
2022-08-25T05:24:18.457Z,97884.23
2022-08-25T05:26:45.407Z,97880.42
2022-08-25T05:29:12.268Z,97880.73
2022-08-25T05:31:48.315Z,97877.64
2022-08-25T05:34:18.297Z,97879.41
2022-08-25T05:36:45.354Z,97875.86
2022-08-25T05:39:12.442Z,97878.95
2022-08-25T05:41:39.304Z,97881.02
2022-08-25T05:44:06.210Z,97879.80
2022-08-25T05:46:33.426Z,97879.09
2022-08-25T05:49:01.379Z,97877.77
2022-08-25T05:51:28.426Z,97878.95
2022-08-25T05:53:55.061Z,97876.09
2022-08-25T05:56:21.727Z,97873.45
2022-08-25T05:58:49.580Z,97874.21
2022-08-25T06:01:43.445Z,97876.31
2022-08-25T06:04:13.691Z,97878.30
2022-08-25T06:06:40.438Z,97873.98
2022-08-25T06:09:09.059Z,97875.36
2022-08-25T06:11:40.436Z,97877.39
2022-08-25T06:14:10.686Z,97879.45
2022-08-25T06:16:38.526Z,97878.85
2022-08-25T06:19:07.294Z,97880.04
2022-08-25T06:21:34.072Z,97876.10
2022-08-25T06:24:01.746Z,97876.50
2022-08-25T06:26:28.868Z,97876.71
2022-08-25T06:28:55.602Z,97876.98
2022-08-25T06:31:22.434Z,97872.70
2022-08-25T06:33:49.698Z,97873.88
2022-08-25T06:36:17.186Z,97877.95
2022-08-25T06:38:44.023Z,97879.20
2022-08-25T06:41:12.250Z,97881.11
2022-08-25T06:43:45.065Z,97884.11
2022-08-25T06:46:20.980Z,97884.73
2022-08-25T06:48:48.336Z,97880.94
2022-08-25T06:51:18.425Z,97885.42
2022-08-25T06:53:48.454Z,97887.73
2022-08-25T06:56:16.968Z,97885.55
2022-08-25T06:58:44.220Z,97889.19
2022-08-25T07:01:20.185Z,97889.61
2022-08-25T07:03:48.505Z,97892.50
2022-08-25T07:06:18.510Z,97892.61
2022-08-25T07:08:46.849Z,97891.96
2022-08-25T07:11:16.422Z,97888.57
2022-08-25T07:13:44.994Z,97885.21
2022-08-25T07:16:12.315Z,97889.92
2022-08-25T07:18:39.173Z,97884.02
2022-08-25T07:21:08.862Z,97883.20
2022-08-25T07:23:37.103Z,97880.45
2022-08-25T07:26:35.965Z,97880.01
2022-08-25T07:29:03.125Z,97880.46
2022-08-25T07:31:30.750Z,97877.58
2022-08-25T07:34:16.668Z,97878.58
2022-08-25T07:36:44.381Z,97878.55
2022-08-25T07:39:11.433Z,97874.21
2022-08-25T07:41:41.328Z,97871.30
2022-08-25T07:44:10.481Z,97875.38
2022-08-25T07:46:38.368Z,97875.06
2022-08-25T07:49:13.326Z,97869.05
2022-08-25T07:52:03.631Z,97871.50
2022-08-25T07:54:34.386Z,97867.54
2022-08-25T07:57:03.352Z,97864.08
2022-08-25T07:59:30.520Z,97860.56
2022-08-25T08:01:57.490Z,97855.59
2022-08-25T08:04:24.753Z,97856.23
2022-08-25T08:06:51.455Z,97855.97
2022-08-25T08:09:18.047Z,97853.59
2022-08-25T08:11:53.664Z,97853.24
2022-08-25T08:14:30.162Z,97845.90
2022-08-25T08:16:56.971Z,97842.39
2022-08-25T08:19:23.675Z,97839.17
2022-08-25T08:21:50.265Z,97833.45
2022-08-25T08:24:40.762Z,97835.69
2022-08-25T08:27:07.823Z,97831.93
2022-08-25T08:29:35.698Z,97830.20
2022-08-25T08:32:04.033Z,97827.70
2022-08-25T08:34:33.030Z,97822.92
2022-08-25T08:37:00.053Z,97820.51
2022-08-25T08:39:28.283Z,97819.55
2022-08-25T08:42:21.622Z,97815.30
2022-08-25T08:45:03.765Z,97814.74
2022-08-25T08:47:52.117Z,97810.02
2022-08-25T08:50:42.709Z,97803.83
2022-08-25T08:53:44.253Z,97802.44
2022-08-25T08:56:36.476Z,97804.72
2022-08-25T08:59:12.637Z,97798.51
2022-08-25T09:01:47.817Z,97794.95
2022-08-25T09:05:03.848Z,97796.48
2022-08-25T09:07:39.322Z,97792.08
2022-08-25T09:10:10.246Z,97786.95
2022-08-25T09:16:01.980Z,97782.77
2022-08-25T09:19:03.953Z,97780.80
2022-08-25T09:21:54.380Z,97778.64
2022-08-25T09:24:41.987Z,97774.95
2022-08-25T09:27:29.637Z,97770.45
2022-08-25T09:29:56.616Z,97770.86
2022-08-25T09:32:31.444Z,97769.20
2022-08-25T09:35:01.147Z,97767.38
2022-08-25T09:37:27.860Z,97765.34
2022-08-25T09:39:55.202Z,97762.13
2022-08-25T09:42:49.666Z,97762.64
2022-08-25T09:45:32.295Z,97755.13
2022-08-25T09:47:59.850Z,97749.85
2022-08-25T09:50:32.530Z,97748.69
2022-08-25T09:53:17.407Z,97744.48
2022-08-25T09:55:59.884Z,97745.46
2022-08-25T09:58:27.710Z,97744.27
2022-08-25T10:01:04.881Z,97744.73
2022-08-25T10:03:32.302Z,97745.78
2022-08-25T10:06:13.227Z,97741.20
2022-08-25T10:08:42.825Z,97737.05
2022-08-25T10:11:14.768Z,97736.80
2022-08-25T10:13:47.625Z,97730.10
2022-08-25T10:16:35.815Z,97729.70
2022-08-25T10:19:08.108Z,97719.64
2022-08-25T10:21:37.511Z,97709.45
2022-08-25T10:24:05.477Z,97709.66
2022-08-25T10:26:50.409Z,97698.84
2022-08-25T10:29:35.264Z,97700.74
2022-08-25T10:32:18.134Z,97691.34
2022-08-25T10:34:52.585Z,97696.95
2022-08-25T10:37:41.719Z,97696.56
2022-08-25T10:40:38.972Z,97696.27
2022-08-25T10:43:11.599Z,97700.98
2022-08-25T10:46:01.896Z,97699.93
2022-08-25T10:48:37.315Z,97697.52
2022-08-25T10:51:25.505Z,97690.86
2022-08-25T10:54:10.664Z,97683.87
2022-08-25T10:56:42.787Z,97681.65
2022-08-25T10:59:12.327Z,97683.14
2022-08-25T11:02:06.660Z,97681.04
2022-08-25T11:04:52.305Z,97677.73
2022-08-25T11:07:24.843Z,97671.97
2022-08-25T11:09:57.040Z,97670.54
2022-08-25T11:12:31.839Z,97668.41
2022-08-25T11:15:03.395Z,97672.56
2022-08-25T11:17:50.130Z,97670.74
2022-08-25T11:20:40.776Z,97664.98
2022-08-25T11:23:22.735Z,97661.21
2022-08-25T11:25:52.945Z,97661.64
2022-08-25T11:28:44.173Z,97656.38
2022-08-25T11:31:11.696Z,97660.52
2022-08-25T11:33:38.736Z,97658.03
2022-08-25T11:36:32.294Z,97651.83
2022-08-25T11:39:34.511Z,97645.88
2022-08-25T11:42:19.729Z,97640.79
2022-08-25T11:45:25.913Z,97641.17
2022-08-25T11:48:25.428Z,97640.77
2022-08-25T11:51:02.907Z,97641.73
2022-08-25T11:53:42.169Z,97640.02
2022-08-25T11:56:30.968Z,97633.79
2022-08-25T11:58:59.383Z,97634.60
2022-08-25T12:01:42.623Z,97633.55
2022-08-25T12:04:37.732Z,97632.77
2022-08-25T12:07:19.785Z,97626.44
2022-08-25T12:09:49.360Z,97629.23
2022-08-25T12:12:42.087Z,97627.58
2022-08-25T12:15:23.031Z,97626.27
2022-08-25T12:18:15.707Z,97620.42
2022-08-25T12:20:54.695Z,97617.11
2022-08-25T12:23:35.573Z,97617.37
2022-08-25T12:26:10.972Z,97618.27
2022-08-25T12:29:16.056Z,97616.55
2022-08-25T12:32:10.896Z,97621.83
2022-08-25T12:35:08.408Z,97623.20
2022-08-25T12:38:04.880Z,97616.52
2022-08-25T12:40:52.577Z,97615.66
2022-08-25T12:43:19.659Z,97614.65
2022-08-25T12:45:48.829Z,97616.15
2022-08-25T12:48:27.583Z,97616.70
2022-08-25T12:51:02.061Z,97616.08
2022-08-25T12:53:38.433Z,97617.71
2022-08-25T12:56:08.017Z,97615.59
2022-08-25T12:59:02.339Z,97609.20
2022-08-25T13:01:36.150Z,97602.66
2022-08-25T13:04:37.781Z,97605.81
2022-08-25T13:07:39.377Z,97600.20
2022-08-25T13:10:27.825Z,97593.56
2022-08-25T13:13:04.429Z,97591.05
2022-08-25T13:15:41.238Z,97586.43
2022-08-25T13:18:18.914Z,97587.20
2022-08-25T13:20:48.438Z,97585.38
2022-08-25T13:23:21.694Z,97583.94
2022-08-25T13:25:51.659Z,97585.42
2022-08-25T13:28:31.339Z,97583.80
2022-08-25T13:31:05.013Z,97586.50
2022-08-25T13:33:33.601Z,97582.67
2022-08-25T13:36:22.561Z,97583.61
2022-08-25T13:38:49.572Z,97584.21
2022-08-25T13:41:20.754Z,97579.85
2022-08-25T13:43:47.420Z,97580.84
2022-08-25T13:46:18.866Z,97580.71
2022-08-25T13:48:49.508Z,97577.32
2022-08-25T13:51:21.919Z,97577.96
2022-08-25T13:54:00.669Z,97576.60
2022-08-25T13:56:40.051Z,97573.59
2022-08-25T13:59:25.164Z,97572.27
2022-08-25T14:01:54.604Z,97568.51
2022-08-25T14:04:31.108Z,97566.47
2022-08-25T14:07:08.497Z,97567.92
2022-08-25T14:09:51.576Z,97564.59
2022-08-25T14:12:42.014Z,97560.20
2022-08-25T14:15:17.304Z,97560.58
2022-08-25T14:17:48.344Z,97559.02
2022-08-25T14:20:26.653Z,97555.91
2022-08-25T14:22:58.104Z,97552.42
2022-08-25T14:25:27.268Z,97554.58
2022-08-25T14:28:08.532Z,97552.73
2022-08-25T14:30:43.347Z,97551.75
2022-08-25T14:33:13.733Z,97552.00
2022-08-25T14:35:45.470Z,97549.45
2022-08-25T14:38:15.176Z,97546.66
2022-08-25T14:40:41.905Z,97548.13
2022-08-25T14:43:09.526Z,97546.55
2022-08-25T14:45:40.126Z,97547.48
2022-08-25T14:48:12.519Z,97548.10
2022-08-25T14:50:41.001Z,97548.88
2022-08-25T14:53:11.004Z,97545.23
2022-08-25T14:55:38.282Z,97545.08
2022-08-25T14:58:07.263Z,97548.27
2022-08-25T15:00:44.735Z,97544.21
2022-08-25T15:03:14.859Z,97544.86
2022-08-25T15:05:42.021Z,97543.83
2022-08-25T15:08:32.938Z,97541.55
2022-08-25T15:11:00.330Z,97544.64
2022-08-25T15:13:26.919Z,97541.76
2022-08-25T15:15:55.323Z,97540.83
2022-08-25T15:18:25.238Z,97542.50
2022-08-25T15:20:51.810Z,97540.00
2022-08-25T15:23:18.582Z,97538.23
2022-08-25T15:25:48.364Z,97539.84
2022-08-25T15:28:17.414Z,97541.02
2022-08-25T15:30:45.681Z,97541.77
2022-08-25T15:33:13.932Z,97539.94
2022-08-25T15:35:40.950Z,97537.69
2022-08-25T15:38:07.774Z,97535.94
2022-08-25T15:40:36.899Z,97534.69
2022-08-25T15:43:03.545Z,97535.17
2022-08-25T15:45:31.395Z,97534.29
2022-08-25T15:47:58.043Z,97531.98
2022-08-25T15:50:26.378Z,97526.91
2022-08-25T15:52:53.329Z,97527.43
2022-08-25T15:55:20.593Z,97527.35
2022-08-25T15:57:49.570Z,97524.03
2022-08-25T16:00:17.622Z,97522.55
2022-08-25T16:02:44.749Z,97521.03
2022-08-25T16:05:12.589Z,97520.17
2022-08-25T16:07:40.541Z,97517.81
2022-08-25T16:10:07.561Z,97518.15
2022-08-25T16:12:34.061Z,97518.04
2022-08-25T16:15:01.196Z,97519.80
2022-08-25T16:17:27.784Z,97521.96
2022-08-25T16:19:54.395Z,97519.09
2022-08-25T16:22:20.969Z,97522.38
2022-08-25T16:24:47.601Z,97522.42
2022-08-25T16:27:14.437Z,97525.80
2022-08-25T16:29:44.087Z,97524.83
2022-08-25T16:32:13.570Z,97527.66
2022-08-25T16:34:41.352Z,97525.92
2022-08-25T16:37:08.082Z,97524.23
2022-08-25T16:39:34.697Z,97525.41
2022-08-25T16:42:01.297Z,97526.16
2022-08-25T16:44:28.001Z,97524.68
2022-08-25T16:46:54.819Z,97524.99
2022-08-25T16:49:24.190Z,97524.95
2022-08-25T16:51:57.584Z,97524.08
2022-08-25T16:54:45.127Z,97523.43
2022-08-25T16:57:12.908Z,97525.70
2022-08-25T16:59:41.883Z,97524.83
2022-08-25T17:02:09.278Z,97524.55
2022-08-25T17:04:36.665Z,97528.80
2022-08-25T17:07:04.304Z,97528.01
2022-08-25T17:09:31.901Z,97529.88
2022-08-25T17:11:58.505Z,97529.71
2022-08-25T17:14:25.566Z,97529.91
2022-08-25T17:16:54.509Z,97532.52
2022-08-25T17:19:23.637Z,97536.90
2022-08-25T17:21:53.082Z,97543.20
2022-08-25T17:24:19.775Z,97543.58
2022-08-25T17:26:49.279Z,97546.80
2022-08-25T17:29:17.189Z,97545.85
2022-08-25T17:31:45.493Z,97543.28
2022-08-25T17:34:16.418Z,97547.35
2022-08-25T17:36:43.476Z,97548.52
2022-08-25T17:39:12.839Z,97550.03
2022-08-25T17:41:42.522Z,97551.91
2022-08-25T17:44:09.147Z,97554.46
2022-08-25T17:46:36.929Z,97555.96
2022-08-25T17:49:04.364Z,97561.26
2022-08-25T17:51:31.850Z,97565.99
2022-08-25T17:53:58.822Z,97570.31
2022-08-25T17:56:27.253Z,97569.33
2022-08-25T17:58:55.611Z,97571.16
2022-08-25T18:01:25.864Z,97573.47
2022-08-25T18:03:54.333Z,97577.40
2022-08-25T18:06:24.240Z,97583.80
2022-08-25T18:08:56.329Z,97586.16
2022-08-25T18:11:25.985Z,97589.48
2022-08-25T18:13:54.537Z,97590.84
2022-08-25T18:16:23.474Z,97596.38
2022-08-25T18:18:51.843Z,97599.59
2022-08-25T18:21:21.393Z,97599.82
2022-08-25T18:23:49.269Z,97605.97
2022-08-25T18:26:16.566Z,97599.80
2022-08-25T18:28:43.960Z,97606.04
2022-08-25T18:31:12.376Z,97606.06
2022-08-25T18:33:43.949Z,97609.16
2022-08-25T18:36:12.147Z,97614.88
2022-08-25T18:38:59.580Z,97612.52
2022-08-25T18:41:32.399Z,97614.84
2022-08-25T18:43:59.181Z,97615.13
2022-08-25T18:46:26.084Z,97615.09
2022-08-25T18:48:53.608Z,97618.07
2022-08-25T18:51:22.821Z,97620.34
2022-08-25T18:53:54.472Z,97619.63
2022-08-25T18:56:26.544Z,97620.02
2022-08-25T18:58:53.373Z,97623.46
2022-08-25T19:01:20.422Z,97626.07
2022-08-25T19:03:51.483Z,97635.09
2022-08-25T19:06:21.665Z,97630.06
2022-08-25T19:08:48.469Z,97625.20
2022-08-25T19:11:16.704Z,97624.63
2022-08-25T19:13:44.331Z,97628.17
2022-08-25T19:16:20.358Z,97626.87
2022-08-25T19:18:48.364Z,97618.36
2022-08-25T19:21:15.282Z,97619.72
2022-08-25T19:23:42.114Z,97620.12
2022-08-25T19:26:16.926Z,97623.90
2022-08-25T19:28:48.888Z,97625.30
2022-08-25T19:31:21.677Z,97624.60
2022-08-25T19:33:51.019Z,97631.17
2022-08-25T19:36:23.078Z,97634.45
2022-08-25T19:38:51.926Z,97641.55
2022-08-25T19:41:21.620Z,97642.54
2022-08-25T19:43:55.987Z,97648.73
2022-08-25T19:46:33.336Z,97646.33
2022-08-25T19:49:19.217Z,97650.53
2022-08-25T19:51:51.053Z,97656.98
2022-08-25T19:54:27.775Z,97651.35
2022-08-25T19:56:55.676Z,97658.18
2022-08-25T19:59:40.573Z,97659.91
2022-08-25T20:02:19.707Z,97661.34
2022-08-25T20:04:49.730Z,97661.84
2022-08-25T20:07:22.146Z,97661.58
2022-08-25T20:09:52.311Z,97660.27
2022-08-25T20:12:19.858Z,97659.84
2022-08-25T20:14:47.876Z,97660.83
2022-08-25T20:17:23.627Z,97662.15
2022-08-25T20:19:54.252Z,97658.34
2022-08-25T20:22:26.361Z,97657.89
2022-08-25T20:24:59.343Z,97660.09
2022-08-25T20:27:32.604Z,97658.61
2022-08-25T20:30:02.550Z,97654.92
2022-08-25T20:32:31.939Z,97650.78
2022-08-25T20:34:59.963Z,97647.35
2022-08-25T20:37:26.728Z,97647.61
2022-08-25T20:39:54.385Z,97648.98
2022-08-25T20:42:21.168Z,97653.21
2022-08-25T20:44:47.986Z,97650.45
2022-08-25T20:47:14.922Z,97651.16
2022-08-25T20:49:44.363Z,97652.98
2022-08-25T20:52:11.442Z,97655.27
2022-08-25T20:54:38.685Z,97656.44
2022-08-25T20:57:05.685Z,97662.06
2022-08-25T20:59:35.126Z,97662.52
2022-08-25T21:02:02.264Z,97664.37
2022-08-25T21:04:30.485Z,97667.80
2022-08-25T21:07:01.536Z,97666.33
2022-08-25T21:09:29.474Z,97662.95
2022-08-25T21:11:57.094Z,97661.52
2022-08-25T21:14:25.248Z,97661.98
2022-08-25T21:16:54.074Z,97659.36
2022-08-25T21:19:26.884Z,97662.75
2022-08-25T21:21:59.981Z,97660.88
2022-08-25T21:24:27.761Z,97661.75
2022-08-25T21:26:57.114Z,97667.59
2022-08-25T21:29:25.947Z,97663.98
2022-08-25T21:31:58.764Z,97664.55
2022-08-25T21:34:28.821Z,97664.42
2022-08-25T21:36:59.287Z,97662.63
2022-08-25T21:39:29.099Z,97662.02
2022-08-25T21:41:57.943Z,97660.31
2022-08-25T21:44:27.835Z,97661.91
2022-08-25T21:46:55.473Z,97662.63
2022-08-25T21:49:25.153Z,97665.05
2022-08-25T21:52:00.439Z,97667.24
2022-08-25T21:54:28.783Z,97663.27
2022-08-25T21:56:59.375Z,97657.89
2022-08-25T21:59:29.097Z,97656.54
2022-08-25T22:02:07.949Z,97659.61
2022-08-25T22:04:37.896Z,97659.98
2022-08-25T22:07:07.399Z,97656.38
2022-08-25T22:09:34.949Z,97656.33
2022-08-25T22:12:01.678Z,97656.27
2022-08-25T22:14:28.581Z,97657.73
2022-08-25T22:16:55.393Z,97656.23
2022-08-25T22:19:22.981Z,97657.45
2022-08-25T22:21:50.850Z,97655.36
2022-08-25T22:24:19.243Z,97654.02
2022-08-25T22:26:47.432Z,97650.79
2022-08-25T22:29:16.232Z,97647.08
2022-08-25T22:31:54.108Z,97642.31
2022-08-25T22:34:30.749Z,97642.50
2022-08-25T22:37:00.081Z,97639.55
2022-08-25T22:39:26.931Z,97636.88
2022-08-25T22:41:53.607Z,97638.61
2022-08-25T22:44:20.121Z,97635.39
2022-08-25T22:46:46.627Z,97637.52
2022-08-25T22:49:13.343Z,97636.09
2022-08-25T22:51:41.001Z,97637.18
2022-08-25T22:54:09.575Z,97636.17
2022-08-25T22:56:36.769Z,97632.23
2022-08-25T22:59:06.748Z,97633.08
2022-08-25T23:01:33.753Z,97630.69
2022-08-25T23:04:01.449Z,97630.17
2022-08-25T23:06:29.165Z,97631.69
2022-08-25T23:08:56.297Z,97633.20
2022-08-25T23:11:24.155Z,97632.77
2022-08-25T23:13:54.510Z,97635.02
2022-08-25T23:16:22.897Z,97636.92
2022-08-25T23:18:49.599Z,97631.68
2022-08-25T23:21:38.221Z,97631.49
2022-08-25T23:24:11.087Z,97629.24
2022-08-25T23:26:42.704Z,97628.42
2022-08-25T23:29:17.524Z,97630.45
2022-08-25T23:31:45.857Z,97630.27
2022-08-25T23:34:13.906Z,97627.90
2022-08-25T23:36:40.888Z,97629.10
2022-08-25T23:39:08.970Z,97625.36
2022-08-25T23:41:36.143Z,97623.35
2022-08-25T23:44:04.786Z,97618.18
2022-08-25T23:46:31.619Z,97619.34
2022-08-25T23:48:58.795Z,97618.96
2022-08-25T23:51:37.208Z,97618.88
2022-08-25T23:54:09.549Z,97618.64
2022-08-25T23:56:42.225Z,97620.00
2022-08-25T23:59:12.628Z,97616.91
